Terminal Aerodrome Forecast
Issued by NWS

Home | Current Version | Previous Version | Text Only | Print | Product List | Glossary On
Versions: 1 2 3 4 5 6 7 8 9 10 11 12 13
904
FTUS43 KICT 182329
TAFHUT
TAF
KHUT 182329Z 1900/1924 18025G35KT P6SM SCT025 BKN200
     FM190100 18021G29KT P6SM SCT150 BKN200
     FM190500 18018G25KT P6SM BKN025 WS020/21050KT
     FM191300 24016KT P6SM BKN030
     FM191600 35015KT P6SM BKN030=

USA.gov is the U.S. government's official web portal to all federal, state and local government web resources and services.